createdAt,value
2017-09-17T00:00:49.233Z,10.41
2017-09-17T00:02:42.240Z,10.49
2017-09-17T00:03:42.277Z,10.38
2017-09-17T00:05:35.268Z,10.34
2017-09-17T00:06:35.321Z,10.31
2017-09-17T00:08:28.330Z,10.42
2017-09-17T00:09:28.372Z,10.35
2017-09-17T00:11:21.360Z,10.37
2017-09-17T00:12:21.419Z,10.41
2017-09-17T00:14:14.428Z,10.33
2017-09-17T00:15:14.469Z,10.35
2017-09-17T00:17:07.471Z,10.46
2017-09-17T00:18:07.509Z,10.48
2017-09-17T00:20:00.506Z,10.53
2017-09-17T00:21:00.554Z,10.46
2017-09-17T00:22:53.559Z,10.46
2017-09-17T00:23:53.600Z,10.49
2017-09-17T00:25:46.587Z,10.38
2017-09-17T00:26:46.647Z,10.46
2017-09-17T00:28:39.649Z,10.37
2017-09-17T00:29:39.688Z,10.33
2017-09-17T00:31:32.675Z,10.30
2017-09-17T00:32:32.737Z,10.30
2017-09-17T00:34:25.740Z,10.38
2017-09-17T00:35:25.779Z,10.35
2017-09-17T00:37:19.295Z,10.38
2017-09-17T00:38:19.331Z,10.31
2017-09-17T00:40:12.317Z,10.34
2017-09-17T00:41:12.386Z,10.23
2017-09-17T00:43:05.382Z,10.20
2017-09-17T00:44:05.420Z,10.26
2017-09-17T00:45:58.406Z,10.22
2017-09-17T00:46:58.467Z,10.25
2017-09-17T00:48:51.470Z,10.20
2017-09-17T00:49:51.510Z,10.20
2017-09-17T00:51:44.499Z,10.25
2017-09-17T00:52:44.555Z,10.30
2017-09-17T00:54:37.580Z,10.26
2017-09-17T00:55:37.601Z,10.20
2017-09-17T00:57:30.602Z,10.17
2017-09-17T00:58:30.641Z,10.01
2017-09-17T01:00:23.627Z,10.01
2017-09-17T01:01:23.686Z,9.95
2017-09-17T01:03:16.693Z,10.04
2017-09-17T01:04:16.732Z,9.99
2017-09-17T01:06:09.719Z,9.86
2017-09-17T01:07:09.780Z,9.76
2017-09-17T01:09:02.788Z,9.76
2017-09-17T01:10:02.828Z,9.69
2017-09-17T01:11:55.816Z,9.61
2017-09-17T01:12:55.877Z,9.51
2017-09-17T01:14:48.878Z,9.55
2017-09-17T01:15:48.915Z,9.50
2017-09-17T01:17:41.923Z,9.39
2017-09-17T01:18:42.002Z,9.50
2017-09-17T01:20:34.946Z,9.32
2017-09-17T01:21:35.010Z,9.31
2017-09-17T01:23:28.012Z,9.40
2017-09-17T01:24:28.050Z,9.41
2017-09-17T01:26:21.040Z,9.46
2017-09-17T01:27:21.097Z,9.47
2017-09-17T01:29:14.106Z,9.54
2017-09-17T01:30:14.145Z,9.55
2017-09-17T01:32:07.149Z,9.55
2017-09-17T01:33:07.187Z,9.39
2017-09-17T01:35:00.204Z,9.36
2017-09-17T01:36:00.231Z,9.36
2017-09-17T01:37:53.746Z,9.23
2017-09-17T01:38:53.932Z,9.28
2017-09-17T01:40:46.771Z,9.25
2017-09-17T01:41:46.828Z,9.19
2017-09-17T01:43:39.836Z,9.28
2017-09-17T01:44:39.869Z,9.28
2017-09-17T01:46:32.857Z,9.28
2017-09-17T01:47:32.922Z,9.31
2017-09-17T01:49:25.923Z,9.34
2017-09-17T01:50:25.963Z,9.34
2017-09-17T01:52:18.952Z,9.25
2017-09-17T01:53:19.012Z,9.25
2017-09-17T01:55:12.016Z,9.25
2017-09-17T01:56:12.057Z,9.21
2017-09-17T01:58:05.074Z,9.21
2017-09-17T01:59:05.104Z,9.19
2017-09-17T02:00:58.090Z,9.25
2017-09-17T02:01:58.145Z,9.21
2017-09-17T02:03:51.151Z,9.18
2017-09-17T02:04:51.191Z,9.22
2017-09-17T02:06:44.172Z,9.23
2017-09-17T02:07:44.233Z,9.18
2017-09-17T02:09:37.244Z,9.21
2017-09-17T02:10:37.281Z,9.26
2017-09-17T02:12:30.261Z,9.22
2017-09-17T02:13:30.322Z,9.25
2017-09-17T02:15:23.336Z,9.29
2017-09-17T02:16:23.370Z,9.21
2017-09-17T02:18:16.373Z,9.22
2017-09-17T02:19:16.412Z,9.22
2017-09-17T02:21:09.399Z,9.18
2017-09-17T02:22:09.461Z,9.13
2017-09-17T02:24:02.465Z,9.16
2017-09-17T02:25:02.505Z,9.13
2017-09-17T02:26:55.490Z,9.19
2017-09-17T02:27:55.578Z,9.21
2017-09-17T02:29:48.555Z,9.19
2017-09-17T02:30:48.593Z,9.23
2017-09-17T02:32:41.582Z,9.36
2017-09-17T02:33:41.638Z,9.25
2017-09-17T02:35:34.642Z,9.34
2017-09-17T02:36:34.681Z,9.37
2017-09-17T02:38:27.688Z,9.29
2017-09-17T02:39:27.722Z,9.26
2017-09-17T02:41:20.726Z,9.28
2017-09-17T02:42:20.765Z,9.25
2017-09-17T02:44:13.781Z,9.18
2017-09-17T02:45:13.810Z,9.25
2017-09-17T02:47:06.799Z,9.23
2017-09-17T02:48:06.861Z,9.25
2017-09-17T02:49:59.864Z,9.40
2017-09-17T02:50:59.910Z,9.36
2017-09-17T02:52:52.886Z,9.29
2017-09-17T02:53:52.948Z,9.36
2017-09-17T02:55:45.948Z,9.31
2017-09-17T02:56:45.988Z,9.39
2017-09-17T02:58:38.994Z,9.37
2017-09-17T02:59:39.032Z,9.37
2017-09-17T03:01:32.017Z,9.40
2017-09-17T03:02:32.078Z,9.40
2017-09-17T03:04:25.085Z,9.43
2017-09-17T03:05:25.120Z,9.47
2017-09-17T03:07:18.107Z,9.37
2017-09-17T03:08:18.164Z,9.43
2017-09-17T03:10:11.169Z,9.48
2017-09-17T03:11:11.207Z,9.50
2017-09-17T03:13:04.196Z,9.55
2017-09-17T03:14:04.252Z,9.48
2017-09-17T03:15:57.254Z,9.51
2017-09-17T03:16:57.295Z,9.59
2017-09-17T03:18:50.300Z,9.58
2017-09-17T03:19:50.342Z,9.54
2017-09-17T03:21:43.324Z,9.43
2017-09-17T03:22:43.384Z,9.44
2017-09-17T03:24:36.394Z,9.59
2017-09-17T03:25:36.433Z,9.61
2017-09-17T03:27:29.444Z,9.51
2017-09-17T03:28:29.484Z,9.56
2017-09-17T03:30:22.490Z,9.46
2017-09-17T03:31:22.539Z,9.39
2017-09-17T03:33:15.510Z,9.46
2017-09-17T03:34:15.568Z,9.39
2017-09-17T03:36:08.570Z,9.32
2017-09-17T03:37:08.609Z,9.29
2017-09-17T03:39:01.612Z,9.25
2017-09-17T03:40:01.653Z,9.29
2017-09-17T03:41:54.635Z,9.25
2017-09-17T03:42:54.694Z,9.32
2017-09-17T03:44:47.699Z,9.44
2017-09-17T03:45:47.739Z,9.39
2017-09-17T03:47:40.721Z,9.23
2017-09-17T03:48:40.786Z,9.21
2017-09-17T03:50:33.784Z,9.22
2017-09-17T03:51:33.824Z,9.22
2017-09-17T03:53:26.810Z,9.21
2017-09-17T03:54:26.865Z,9.04
2017-09-17T03:56:19.867Z,9.02
2017-09-17T03:57:19.908Z,9.00
2017-09-17T03:59:12.909Z,8.97
2017-09-17T04:00:12.948Z,9.00
2017-09-17T04:02:05.931Z,8.99
2017-09-17T04:03:05.991Z,8.92
2017-09-17T04:04:58.993Z,8.97
2017-09-17T04:05:59.032Z,9.03
2017-09-17T04:07:52.013Z,9.00
2017-09-17T04:08:52.076Z,9.02
2017-09-17T04:10:45.081Z,9.04
2017-09-17T04:11:45.120Z,8.95
2017-09-17T04:13:38.102Z,8.91
2017-09-17T04:14:38.162Z,8.89
2017-09-17T04:16:31.163Z,8.97
2017-09-17T04:17:31.204Z,9.03
2017-09-17T04:19:24.206Z,9.04
2017-09-17T04:20:24.245Z,9.10
2017-09-17T04:22:17.227Z,9.14
2017-09-17T04:23:17.297Z,9.22
2017-09-17T04:25:10.290Z,9.13
2017-09-17T04:26:10.328Z,9.16
2017-09-17T04:28:03.317Z,9.19
2017-09-17T04:29:03.369Z,9.14
2017-09-17T04:30:56.371Z,9.10
2017-09-17T04:31:56.411Z,9.21
2017-09-17T04:33:49.393Z,9.04
2017-09-17T04:34:49.456Z,9.19
2017-09-17T04:36:42.458Z,9.03
2017-09-17T04:37:42.499Z,9.00
2017-09-17T04:39:35.502Z,8.92
2017-09-17T04:40:35.540Z,8.89
2017-09-17T04:42:28.532Z,8.81
2017-09-17T04:43:28.596Z,8.76
2017-09-17T04:45:21.635Z,8.73
2017-09-17T04:46:21.638Z,8.66
2017-09-17T04:48:14.628Z,8.61
2017-09-17T04:49:14.686Z,8.63
2017-09-17T04:51:07.688Z,8.61
2017-09-17T04:52:07.727Z,8.61
2017-09-17T04:54:00.710Z,8.58
2017-09-17T04:55:00.772Z,8.60
2017-09-17T04:56:53.771Z,8.69
2017-09-17T04:57:53.810Z,8.67
2017-09-17T04:59:46.814Z,8.58
2017-09-17T05:00:46.853Z,8.66
2017-09-17T05:02:39.835Z,8.58
2017-09-17T05:03:39.893Z,8.55
2017-09-17T05:05:32.903Z,8.63
2017-09-17T05:06:32.943Z,8.61
2017-09-17T05:08:25.926Z,8.63
2017-09-17T05:09:25.986Z,8.55
2017-09-17T05:11:18.989Z,8.53
2017-09-17T05:12:19.027Z,8.51
2017-09-17T05:14:12.013Z,8.46
2017-09-17T05:15:12.071Z,8.51
2017-09-17T05:17:05.075Z,8.51
2017-09-17T05:18:05.114Z,8.38
2017-09-17T05:19:58.115Z,8.42
2017-09-17T05:20:58.155Z,8.41
2017-09-17T05:22:51.137Z,8.49
2017-09-17T05:23:51.226Z,8.28
2017-09-17T05:25:44.199Z,8.34
2017-09-17T05:26:44.237Z,8.36
2017-09-17T05:28:37.243Z,8.36
2017-09-17T05:29:37.306Z,8.28
2017-09-17T05:31:30.333Z,8.41
2017-09-17T05:32:30.373Z,8.37
2017-09-17T05:34:23.330Z,8.33
2017-09-17T05:35:23.389Z,8.31
2017-09-17T05:37:16.901Z,8.36
2017-09-17T05:38:16.938Z,8.30
2017-09-17T05:40:09.973Z,8.44
2017-09-17T05:41:10.028Z,8.45
2017-09-17T05:43:02.988Z,8.48
2017-09-17T05:44:03.046Z,8.45
2017-09-17T05:45:56.050Z,8.38
2017-09-17T05:46:56.091Z,8.41
2017-09-17T05:48:49.115Z,8.36
2017-09-17T05:49:49.132Z,8.42
2017-09-17T05:51:42.180Z,8.41
2017-09-17T05:52:42.175Z,8.42
2017-09-17T05:54:35.157Z,8.49
2017-09-17T05:55:35.213Z,8.49
2017-09-17T05:57:28.221Z,8.63
2017-09-17T05:58:28.262Z,8.64
2017-09-17T06:00:21.281Z,8.70
2017-09-17T06:01:21.320Z,8.84
2017-09-17T06:03:14.293Z,8.82
2017-09-17T06:04:14.371Z,8.87
2017-09-17T06:06:07.370Z,8.91
2017-09-17T06:07:07.409Z,8.85
2017-09-17T06:09:00.391Z,8.85
2017-09-17T06:10:00.451Z,8.74
2017-09-17T06:11:53.464Z,8.84
2017-09-17T06:12:53.519Z,8.85
2017-09-17T06:14:46.494Z,8.92
2017-09-17T06:15:46.541Z,8.94
2017-09-17T06:17:39.542Z,9.03
2017-09-17T06:18:39.587Z,9.14
2017-09-17T06:20:32.586Z,9.23
2017-09-17T06:21:32.625Z,9.25
2017-09-17T06:23:25.666Z,9.47
2017-09-17T06:24:25.703Z,9.55
2017-09-17T06:26:18.679Z,9.76
2017-09-17T06:27:18.724Z,9.89
2017-09-17T06:29:11.708Z,10.02
2017-09-17T06:30:11.764Z,10.12
2017-09-17T06:32:04.765Z,10.40
2017-09-17T06:33:04.812Z,10.57
2017-09-17T06:34:57.790Z,10.81
2017-09-17T06:35:57.849Z,10.97
2017-09-17T06:37:51.382Z,11.43
2017-09-17T06:38:51.419Z,11.59
2017-09-17T06:40:44.424Z,12.00
2017-09-17T06:41:44.461Z,12.39
2017-09-17T06:43:37.453Z,13.42
2017-09-17T06:44:37.509Z,14.07
2017-09-17T06:46:30.520Z,15.40
2017-09-17T06:47:30.564Z,16.38
2017-09-17T06:49:23.569Z,17.54
2017-09-17T06:50:23.611Z,18.07
2017-09-17T06:52:16.621Z,18.90
2017-09-17T06:53:16.660Z,19.12
2017-09-17T06:55:09.652Z,19.15
2017-09-17T06:56:09.717Z,19.24
2017-09-17T06:58:02.725Z,19.91
2017-09-17T06:59:02.766Z,20.34
2017-09-17T07:00:55.778Z,20.44
2017-09-17T07:01:55.821Z,20.37
2017-09-17T07:03:48.817Z,20.96
2017-09-17T07:04:48.877Z,21.25
2017-09-17T07:06:41.889Z,21.80
2017-09-17T07:07:41.937Z,22.14
2017-09-17T07:09:34.935Z,22.57
2017-09-17T07:10:35.001Z,22.68
2017-09-17T07:12:28.025Z,23.02
2017-09-17T07:13:28.078Z,23.00
2017-09-17T07:15:21.065Z,22.60
2017-09-17T07:16:21.130Z,22.83
2017-09-17T07:18:14.149Z,23.28
2017-09-17T07:19:14.197Z,23.51
2017-09-17T07:21:07.267Z,24.03
2017-09-17T07:22:07.537Z,23.99
2017-09-17T07:24:00.259Z,23.91
2017-09-17T07:25:00.327Z,24.23
2017-09-17T07:26:53.348Z,22.90
2017-09-17T07:27:53.395Z,20.80
2017-09-17T07:29:46.398Z,20.40
2017-09-17T07:30:46.464Z,21.52
2017-09-17T07:32:39.486Z,22.59
2017-09-17T07:33:39.531Z,22.85
2017-09-17T07:35:32.535Z,22.15
2017-09-17T07:36:32.600Z,22.85
2017-09-17T07:38:25.624Z,23.24
2017-09-17T07:39:25.671Z,23.03
2017-09-17T07:41:18.698Z,22.76
2017-09-17T07:42:18.740Z,23.03
2017-09-17T07:44:11.742Z,22.59
2017-09-17T07:45:11.809Z,22.59
2017-09-17T07:47:04.833Z,22.60
2017-09-17T07:48:04.881Z,22.11
2017-09-17T07:49:57.887Z,22.72
2017-09-17T07:50:57.958Z,22.88
2017-09-17T07:52:50.981Z,23.87
2017-09-17T07:53:51.030Z,24.50
2017-09-17T07:55:44.036Z,24.50
2017-09-17T07:56:44.115Z,24.35
2017-09-17T07:58:37.218Z,23.73
2017-09-17T07:59:37.182Z,22.13
2017-09-17T08:01:30.219Z,21.48
2017-09-17T08:02:30.255Z,22.15
2017-09-17T08:04:23.261Z,23.06
2017-09-17T08:05:23.329Z,23.34
2017-09-17T08:07:16.364Z,23.37
2017-09-17T08:08:16.402Z,23.06
2017-09-17T08:10:09.406Z,24.10
2017-09-17T08:11:09.477Z,24.35
2017-09-17T08:13:02.499Z,23.96
2017-09-17T08:14:02.552Z,24.26
2017-09-17T08:15:55.712Z,23.98
2017-09-17T08:16:55.668Z,24.14
2017-09-17T08:18:48.703Z,23.32
2017-09-17T08:19:49.137Z,23.47
2017-09-17T08:21:42.155Z,24.57
2017-09-17T08:22:42.788Z,24.65
2017-09-17T08:24:34.787Z,24.13
2017-09-17T08:25:34.870Z,24.68
2017-09-17T08:27:27.937Z,23.73
2017-09-17T08:28:27.934Z,23.87
2017-09-17T08:30:20.945Z,23.80
2017-09-17T08:31:21.029Z,24.14
2017-09-17T08:33:14.045Z,24.70
2017-09-17T08:34:14.098Z,24.95
2017-09-17T08:36:07.145Z,25.08
2017-09-17T08:37:07.370Z,24.17
2017-09-17T08:39:00.208Z,24.74
2017-09-17T08:40:00.255Z,24.77
2017-09-17T08:41:53.282Z,24.66
2017-09-17T08:42:53.336Z,24.48
2017-09-17T08:44:46.338Z,24.28
2017-09-17T08:45:46.409Z,23.63
2017-09-17T08:47:39.437Z,21.99
2017-09-17T08:48:39.486Z,21.73
2017-09-17T08:50:32.497Z,22.00
2017-09-17T08:51:32.568Z,21.35
2017-09-17T08:53:25.590Z,20.58
2017-09-17T08:54:25.640Z,21.25
2017-09-17T08:56:18.649Z,22.11
2017-09-17T08:57:18.730Z,21.27
2017-09-17T08:59:11.770Z,20.40
2017-09-17T09:00:11.807Z,20.41
2017-09-17T09:02:04.827Z,19.85
2017-09-17T09:03:04.876Z,19.76
2017-09-17T09:04:57.922Z,19.74
2017-09-17T09:05:57.958Z,19.66
2017-09-17T09:07:50.993Z,18.88
2017-09-17T09:08:51.039Z,18.81
2017-09-17T09:10:44.048Z,18.25
2017-09-17T09:11:44.116Z,18.15
2017-09-17T09:13:37.143Z,18.08
2017-09-17T09:14:37.182Z,18.03
2017-09-17T09:16:30.188Z,17.92
2017-09-17T09:17:30.271Z,17.87
2017-09-17T09:19:23.280Z,18.01
2017-09-17T09:20:23.325Z,17.87
2017-09-17T09:22:16.355Z,18.10
2017-09-17T09:23:16.399Z,17.92
2017-09-17T09:25:09.408Z,18.05
2017-09-17T09:26:09.471Z,17.79
2017-09-17T09:28:02.514Z,17.87
2017-09-17T09:29:02.546Z,18.04
2017-09-17T09:30:55.551Z,18.07
2017-09-17T09:31:55.642Z,18.13
2017-09-17T09:33:48.655Z,18.04
2017-09-17T09:34:48.693Z,18.00
2017-09-17T09:36:41.695Z,17.82
2017-09-17T09:37:41.770Z,17.83
2017-09-17T09:39:34.789Z,17.68
2017-09-17T09:40:34.834Z,17.60
2017-09-17T09:42:27.853Z,17.76
2017-09-17T09:43:27.897Z,17.67
2017-09-17T09:45:20.898Z,17.54
2017-09-17T09:46:20.965Z,17.83
2017-09-17T09:48:13.987Z,16.97
2017-09-17T09:49:14.029Z,16.76
2017-09-17T09:51:07.025Z,16.68
2017-09-17T09:52:07.095Z,16.75
2017-09-17T09:54:00.106Z,16.76
2017-09-17T09:55:00.153Z,17.02
2017-09-17T09:56:53.147Z,17.11
2017-09-17T09:57:53.211Z,17.20
2017-09-17T09:59:46.225Z,17.27
2017-09-17T10:00:46.272Z,17.20
2017-09-17T10:02:39.285Z,17.49
2017-09-17T10:03:39.340Z,17.76
2017-09-17T10:05:32.323Z,17.72
2017-09-17T10:06:32.388Z,17.71
2017-09-17T10:08:25.408Z,17.65
2017-09-17T10:09:25.452Z,17.67
2017-09-17T10:11:18.451Z,17.63
2017-09-17T10:12:18.536Z,17.59
2017-09-17T10:14:11.552Z,17.60
2017-09-17T10:15:11.573Z,17.67
2017-09-17T10:17:04.574Z,17.64
2017-09-17T10:18:04.637Z,17.64
2017-09-17T10:19:57.651Z,17.34
2017-09-17T10:20:57.695Z,17.29
2017-09-17T10:22:50.715Z,17.06
2017-09-17T10:23:50.757Z,17.09
2017-09-17T10:25:43.829Z,17.01
2017-09-17T10:26:43.823Z,16.94
2017-09-17T10:28:36.837Z,16.90
2017-09-17T10:29:36.881Z,16.87
2017-09-17T10:31:29.892Z,17.14
2017-09-17T10:32:29.938Z,17.01
2017-09-17T10:34:22.956Z,16.89
2017-09-17T10:35:23.002Z,16.83
2017-09-17T10:37:16.009Z,16.75
2017-09-17T10:38:16.068Z,16.72
2017-09-17T10:40:09.082Z,16.81
2017-09-17T10:41:09.131Z,16.90
2017-09-17T10:43:02.140Z,17.09
2017-09-17T10:44:02.211Z,17.16
2017-09-17T10:45:55.686Z,17.52
2017-09-17T10:46:55.752Z,17.60
2017-09-17T10:48:48.766Z,17.76
2017-09-17T10:49:48.809Z,17.74
2017-09-17T10:51:41.807Z,17.82
2017-09-17T10:52:41.871Z,17.80
2017-09-17T10:54:34.890Z,17.87
2017-09-17T10:55:34.939Z,17.87
2017-09-17T10:57:28.018Z,17.92
2017-09-17T10:58:27.991Z,17.71
2017-09-17T11:00:21.008Z,17.70
2017-09-17T11:01:21.052Z,17.60
2017-09-17T11:03:14.113Z,17.64
2017-09-17T11:04:14.114Z,17.54
2017-09-17T11:06:07.112Z,17.42
2017-09-17T11:07:07.211Z,17.45
2017-09-17T11:09:00.302Z,17.39
2017-09-17T11:10:00.238Z,17.52
2017-09-17T11:11:53.293Z,17.49
2017-09-17T11:12:53.299Z,17.36
2017-09-17T11:14:46.941Z,17.44
2017-09-17T11:15:46.866Z,17.46
2017-09-17T11:17:39.886Z,17.70
2017-09-17T11:18:39.924Z,17.65
2017-09-17T11:20:32.979Z,17.82
2017-09-17T11:21:32.990Z,17.71
2017-09-17T11:23:26.008Z,17.64
2017-09-17T11:24:26.106Z,17.67
2017-09-17T11:26:19.047Z,17.51
2017-09-17T11:27:19.117Z,17.67
2017-09-17T11:29:12.138Z,17.78
2017-09-17T11:30:12.190Z,17.71
2017-09-17T11:32:05.172Z,17.79
2017-09-17T11:33:05.235Z,17.97
2017-09-17T11:34:58.265Z,18.29
2017-09-17T11:35:58.307Z,18.55
2017-09-17T11:37:51.309Z,18.73
2017-09-17T11:38:51.368Z,18.98
2017-09-17T11:40:44.902Z,18.86
2017-09-17T11:41:44.947Z,18.92
2017-09-17T11:43:37.962Z,18.89
2017-09-17T11:44:38.034Z,18.88
2017-09-17T11:46:30.999Z,18.88
2017-09-17T11:47:31.095Z,19.02
2017-09-17T11:49:24.145Z,19.22
2017-09-17T11:50:24.155Z,19.39
2017-09-17T11:52:17.193Z,19.34
2017-09-17T11:53:17.207Z,19.36
2017-09-17T11:55:10.230Z,19.70
2017-09-17T11:56:10.270Z,19.71
2017-09-17T11:58:03.300Z,19.91
2017-09-17T11:59:03.392Z,19.85
2017-09-17T12:00:56.372Z,19.88
2017-09-17T12:01:56.413Z,19.84
2017-09-17T12:03:49.449Z,19.86
2017-09-17T12:04:49.491Z,19.55
2017-09-17T12:06:42.500Z,19.24
2017-09-17T12:07:42.563Z,19.12
2017-09-17T12:09:35.585Z,19.33
2017-09-17T12:10:35.633Z,19.47
2017-09-17T12:12:28.661Z,19.55
2017-09-17T12:13:28.700Z,19.52
2017-09-17T12:15:23.272Z,19.36
2017-09-17T12:16:23.271Z,19.40
2017-09-17T12:18:16.269Z,19.07
2017-09-17T12:19:16.339Z,18.80
2017-09-17T12:21:09.356Z,18.81
2017-09-17T12:22:09.397Z,18.83
2017-09-17T12:24:02.424Z,18.84
2017-09-17T12:25:02.484Z,18.98
2017-09-17T12:26:55.468Z,19.12
2017-09-17T12:27:55.550Z,19.26
2017-09-17T12:29:48.549Z,19.44
2017-09-17T12:30:48.594Z,19.47
2017-09-17T12:32:41.588Z,19.55
2017-09-17T12:33:41.654Z,19.64
2017-09-17T12:35:34.670Z,19.54
2017-09-17T12:36:34.716Z,19.37
2017-09-17T12:38:27.712Z,19.49
2017-09-17T12:39:27.778Z,19.40
2017-09-17T12:41:20.793Z,19.36
2017-09-17T12:42:20.839Z,19.27
2017-09-17T12:44:13.853Z,19.00
2017-09-17T12:45:13.898Z,18.81
2017-09-17T12:47:06.894Z,18.66
2017-09-17T12:48:06.958Z,18.66
2017-09-17T12:49:59.974Z,18.45
2017-09-17T12:51:00.027Z,18.28
2017-09-17T12:52:53.013Z,18.04
2017-09-17T12:53:53.080Z,18.07
2017-09-17T12:55:46.096Z,17.89
2017-09-17T12:56:46.139Z,18.07
2017-09-17T12:58:39.133Z,17.90
2017-09-17T12:59:39.198Z,17.97
2017-09-17T13:01:32.211Z,17.74
2017-09-17T13:02:32.256Z,17.63
2017-09-17T13:04:25.271Z,17.76
2017-09-17T13:05:25.316Z,17.87
2017-09-17T13:07:18.311Z,18.04
2017-09-17T13:08:18.374Z,18.20
2017-09-17T13:10:11.388Z,18.44
2017-09-17T13:11:11.432Z,18.53
2017-09-17T13:13:04.450Z,18.49
2017-09-17T13:14:04.493Z,18.53
2017-09-17T13:15:57.510Z,18.56
2017-09-17T13:16:57.554Z,18.59
2017-09-17T13:18:50.558Z,18.66
2017-09-17T13:19:50.619Z,18.68
2017-09-17T13:21:43.634Z,18.60
2017-09-17T13:22:43.679Z,18.63
2017-09-17T13:24:36.694Z,18.53
2017-09-17T13:25:36.739Z,18.63
2017-09-17T13:27:29.733Z,18.47
2017-09-17T13:28:29.799Z,18.47
2017-09-17T13:30:22.818Z,18.31
2017-09-17T13:31:22.865Z,18.34
2017-09-17T13:33:15.880Z,18.35
2017-09-17T13:34:15.926Z,18.33
2017-09-17T13:36:08.942Z,18.13
2017-09-17T13:37:08.987Z,18.20
2017-09-17T13:39:01.983Z,18.20
2017-09-17T13:40:02.049Z,18.29
2017-09-17T13:41:55.070Z,18.28
2017-09-17T13:42:55.118Z,18.31
2017-09-17T13:44:48.135Z,18.16
2017-09-17T13:45:48.185Z,18.15
2017-09-17T13:47:41.175Z,18.11
2017-09-17T13:48:41.243Z,18.15
2017-09-17T13:50:34.264Z,17.97
2017-09-17T13:51:34.304Z,18.08
2017-09-17T13:53:27.299Z,17.90
2017-09-17T13:54:27.365Z,17.94
2017-09-17T13:56:20.382Z,17.89
2017-09-17T13:57:20.462Z,17.83
2017-09-17T13:59:13.422Z,17.71
2017-09-17T14:00:13.485Z,17.60
2017-09-17T14:02:06.500Z,17.56
2017-09-17T14:03:06.544Z,17.57
2017-09-17T14:04:59.560Z,17.54
2017-09-17T14:05:59.609Z,17.42
2017-09-17T14:07:52.615Z,17.46
2017-09-17T14:08:52.665Z,17.34
2017-09-17T14:10:45.679Z,17.36
2017-09-17T14:11:45.722Z,17.42
2017-09-17T14:13:38.722Z,17.56
2017-09-17T14:14:38.785Z,17.60
2017-09-17T14:16:31.800Z,17.67
2017-09-17T14:17:31.844Z,17.67
2017-09-17T14:19:24.841Z,17.52
2017-09-17T14:20:24.903Z,17.56
2017-09-17T14:22:17.930Z,17.44
2017-09-17T14:23:17.971Z,17.34
2017-09-17T14:25:10.978Z,17.39
2017-09-17T14:26:11.026Z,17.26
2017-09-17T14:28:04.047Z,17.19
2017-09-17T14:29:04.089Z,17.23
2017-09-17T14:30:57.101Z,17.12
2017-09-17T14:31:57.145Z,16.94
2017-09-17T14:33:50.177Z,16.81
2017-09-17T14:34:50.207Z,16.87
2017-09-17T14:36:43.235Z,16.75
2017-09-17T14:37:43.276Z,16.69
2017-09-17T14:39:36.304Z,16.64
2017-09-17T14:40:36.337Z,16.56
2017-09-17T14:42:29.355Z,16.54
2017-09-17T14:43:29.402Z,16.50
2017-09-17T14:45:22.420Z,16.43
2017-09-17T14:46:22.469Z,16.46
2017-09-17T14:48:15.463Z,16.43
2017-09-17T14:49:15.528Z,16.46
2017-09-17T14:51:08.545Z,16.41
2017-09-17T14:52:08.591Z,16.32
2017-09-17T14:54:01.584Z,16.26
2017-09-17T14:55:01.651Z,16.29
2017-09-17T14:56:54.659Z,16.20
2017-09-17T14:57:54.703Z,16.17
2017-09-17T14:59:47.697Z,16.21
2017-09-17T15:00:47.759Z,16.05
2017-09-17T15:02:40.780Z,15.98
2017-09-17T15:03:40.828Z,15.95
2017-09-17T15:05:33.836Z,15.97
2017-09-17T15:06:33.881Z,15.73
2017-09-17T15:08:26.873Z,15.62
2017-09-17T15:09:26.936Z,15.68
2017-09-17T15:11:19.948Z,15.57
2017-09-17T15:12:19.991Z,15.55
2017-09-17T15:14:13.000Z,15.42
2017-09-17T15:15:13.044Z,15.29
2017-09-17T15:17:06.057Z,15.36
2017-09-17T15:18:06.104Z,15.24
2017-09-17T15:19:59.094Z,15.27
2017-09-17T15:20:59.154Z,15.19
2017-09-17T15:22:52.165Z,15.07
2017-09-17T15:23:52.208Z,15.00
2017-09-17T15:25:45.220Z,14.81
2017-09-17T15:26:45.265Z,14.78
2017-09-17T15:28:38.260Z,14.63
2017-09-17T15:29:38.322Z,14.50
2017-09-17T15:31:31.361Z,14.69
2017-09-17T15:32:31.381Z,14.66
2017-09-17T15:34:24.375Z,14.60
2017-09-17T15:35:24.438Z,14.59
2017-09-17T15:37:17.451Z,14.45
2017-09-17T15:38:17.495Z,14.48
2017-09-17T15:40:10.500Z,14.40
2017-09-17T15:41:10.550Z,14.30
2017-09-17T15:43:03.564Z,14.28
2017-09-17T15:44:03.606Z,14.26
2017-09-17T15:45:56.635Z,14.30
2017-09-17T15:46:56.659Z,14.32
2017-09-17T15:48:49.651Z,14.43
2017-09-17T15:49:49.714Z,14.36
2017-09-17T15:51:42.751Z,14.33
2017-09-17T15:52:42.789Z,14.30
2017-09-17T15:54:35.766Z,14.33
2017-09-17T15:55:35.831Z,14.30
2017-09-17T15:57:28.846Z,14.33
2017-09-17T15:58:28.889Z,14.35
2017-09-17T16:00:21.883Z,14.30
2017-09-17T16:01:21.946Z,14.30
2017-09-17T16:03:14.997Z,14.28
2017-09-17T16:04:15.008Z,14.23
2017-09-17T16:06:08.029Z,14.28
2017-09-17T16:07:08.062Z,14.29
2017-09-17T16:09:01.067Z,14.30
2017-09-17T16:10:01.128Z,14.32
2017-09-17T16:11:54.155Z,14.40
2017-09-17T16:12:54.192Z,14.36
2017-09-17T16:14:47.708Z,14.41
2017-09-17T16:15:47.763Z,14.50
2017-09-17T16:17:40.767Z,14.53
2017-09-17T16:18:40.804Z,14.53
2017-09-17T16:20:33.797Z,14.62
2017-09-17T16:21:33.859Z,14.59
2017-09-17T16:23:26.872Z,14.63
2017-09-17T16:24:26.915Z,14.78
2017-09-17T16:26:19.933Z,14.69
2017-09-17T16:27:19.976Z,14.63
2017-09-17T16:29:12.965Z,14.72
2017-09-17T16:30:13.029Z,14.59
2017-09-17T16:32:06.055Z,14.58
2017-09-17T16:33:06.085Z,14.50
2017-09-17T16:34:59.081Z,14.44
2017-09-17T16:35:59.147Z,14.50
2017-09-17T16:37:52.173Z,14.47
2017-09-17T16:38:52.206Z,14.41
2017-09-17T16:40:45.194Z,14.43
2017-09-17T16:41:45.271Z,14.37
2017-09-17T16:43:38.270Z,14.44
2017-09-17T16:44:38.309Z,14.29
2017-09-17T16:46:31.324Z,14.14
2017-09-17T16:47:31.365Z,14.17
2017-09-17T16:49:24.357Z,14.08
2017-09-17T16:50:24.418Z,14.07
2017-09-17T16:52:17.446Z,14.04
2017-09-17T16:53:17.494Z,13.97
2017-09-17T16:55:10.968Z,13.90
2017-09-17T16:56:11.031Z,13.89
2017-09-17T16:58:04.171Z,13.90
2017-09-17T16:59:04.086Z,13.90
2017-09-17T17:00:57.077Z,13.86
2017-09-17T17:01:57.141Z,13.74
2017-09-17T17:03:50.157Z,13.71
2017-09-17T17:04:50.191Z,13.72
2017-09-17T17:06:43.201Z,13.70
2017-09-17T17:07:43.245Z,13.72
2017-09-17T17:09:36.232Z,13.75
2017-09-17T17:10:36.304Z,13.71
2017-09-17T17:12:29.435Z,13.68
2017-09-17T17:13:29.373Z,13.74
2017-09-17T17:15:22.846Z,13.65
2017-09-17T17:16:22.942Z,13.63
2017-09-17T17:18:15.917Z,13.60
2017-09-17T17:19:15.958Z,13.57
2017-09-17T17:21:08.952Z,13.53
2017-09-17T17:22:09.011Z,13.52
2017-09-17T17:24:02.021Z,13.42
2017-09-17T17:25:02.063Z,13.41
2017-09-17T17:26:55.071Z,13.30
2017-09-17T17:27:55.112Z,13.49
2017-09-17T17:29:48.107Z,13.41
2017-09-17T17:30:48.171Z,13.42
2017-09-17T17:32:41.179Z,13.41
2017-09-17T17:33:41.228Z,13.46
2017-09-17T17:35:34.244Z,13.41
2017-09-17T17:36:34.282Z,13.42
2017-09-17T17:38:27.292Z,13.47
2017-09-17T17:39:27.334Z,13.41
2017-09-17T17:41:20.335Z,13.47
2017-09-17T17:42:20.397Z,13.49
2017-09-17T17:44:13.407Z,13.52
2017-09-17T17:45:13.449Z,13.47
2017-09-17T17:47:06.472Z,13.35
2017-09-17T17:48:06.515Z,13.38
2017-09-17T17:49:59.507Z,13.53
2017-09-17T17:50:59.567Z,13.47
2017-09-17T17:52:52.579Z,13.42
2017-09-17T17:53:52.618Z,13.41
2017-09-17T17:55:45.608Z,13.46
2017-09-17T17:56:45.670Z,13.41
2017-09-17T17:58:38.693Z,13.46
2017-09-17T17:59:38.719Z,13.39
2017-09-17T18:01:31.716Z,13.33
2017-09-17T18:02:31.798Z,13.39
2017-09-17T18:04:24.801Z,13.33
2017-09-17T18:05:24.838Z,13.38
2017-09-17T18:07:17.848Z,13.46
2017-09-17T18:08:17.888Z,13.49
2017-09-17T18:10:10.879Z,13.35
2017-09-17T18:11:10.938Z,13.39
2017-09-17T18:13:03.953Z,13.47
2017-09-17T18:14:03.996Z,13.50
2017-09-17T18:15:56.986Z,13.52
2017-09-17T18:16:57.046Z,13.50
2017-09-17T18:18:50.055Z,13.42
2017-09-17T18:19:50.097Z,13.41
2017-09-17T18:21:43.095Z,13.39
2017-09-17T18:22:43.150Z,13.41
2017-09-17T18:24:36.159Z,13.39
2017-09-17T18:25:36.202Z,13.39
2017-09-17T18:27:29.210Z,13.42
2017-09-17T18:28:29.254Z,13.39
2017-09-17T18:30:22.252Z,13.47
2017-09-17T18:31:22.303Z,13.52
2017-09-17T18:33:15.313Z,13.49
2017-09-17T18:34:15.352Z,13.38
2017-09-17T18:36:08.345Z,13.41
2017-09-17T18:37:08.402Z,13.44
2017-09-17T18:39:01.410Z,13.39
2017-09-17T18:40:01.453Z,13.47
2017-09-17T18:41:54.951Z,13.42
2017-09-17T18:42:55.007Z,13.42
2017-09-17T18:44:48.020Z,13.27